sensor_id;sensor_type;location;lat;lon;timestamp;P1;durP1;ratioP1;P2;durP2;ratioP2
17494;SDS011;8864;51.970;4.614;2023-02-02T00:01:16;5.72;;;1.48;;
17494;SDS011;8864;51.970;4.614;2023-02-02T00:03:44;5.82;;;1.58;;
17494;SDS011;8864;51.970;4.614;2023-02-02T00:06:11;5.20;;;1.48;;
17494;SDS011;8864;51.970;4.614;2023-02-02T00:08:38;4.93;;;1.10;;
17494;SDS011;8864;51.970;4.614;2023-02-02T00:11:06;8.90;;;1.90;;
17494;SDS011;8864;51.970;4.614;2023-02-02T00:13:33;6.70;;;1.50;;
17494;SDS011;8864;51.970;4.614;2023-02-02T00:19:01;9.30;;;1.80;;
17494;SDS011;8864;51.970;4.614;2023-02-02T00:21:31;5.63;;;1.77;;
17494;SDS011;8864;51.970;4.614;2023-02-02T00:23:58;8.25;;;1.50;;
17494;SDS011;8864;51.970;4.614;2023-02-02T00:26:27;7.80;;;1.70;;
17494;SDS011;8864;51.970;4.614;2023-02-02T00:28:56;6.15;;;1.30;;
17494;SDS011;8864;51.970;4.614;2023-02-02T00:31:23;9.95;;;1.77;;
17494;SDS011;8864;51.970;4.614;2023-02-02T00:33:52;7.30;;;1.63;;
17494;SDS011;8864;51.970;4.614;2023-02-02T00:36:20;7.80;;;1.58;;
17494;SDS011;8864;51.970;4.614;2023-02-02T00:38:49;3.95;;;1.38;;
17494;SDS011;8864;51.970;4.614;2023-02-02T00:41:17;5.97;;;1.45;;
17494;SDS011;8864;51.970;4.614;2023-02-02T00:43:53;7.55;;;1.33;;
17494;SDS011;8864;51.970;4.614;2023-02-02T00:46:37;9.98;;;1.55;;
17494;SDS011;8864;51.970;4.614;2023-02-02T00:49:06;6.85;;;1.33;;
17494;SDS011;8864;51.970;4.614;2023-02-02T00:51:36;5.40;;;1.33;;
17494;SDS011;8864;51.970;4.614;2023-02-02T00:54:03;7.68;;;1.40;;
17494;SDS011;8864;51.970;4.614;2023-02-02T00:56:31;9.18;;;1.67;;
17494;SDS011;8864;51.970;4.614;2023-02-02T00:58:59;4.30;;;1.60;;
17494;SDS011;8864;51.970;4.614;2023-02-02T01:01:26;8.98;;;2.08;;
17494;SDS011;8864;51.970;4.614;2023-02-02T01:03:54;10.05;;;1.77;;
17494;SDS011;8864;51.970;4.614;2023-02-02T01:06:21;9.95;;;1.60;;
17494;SDS011;8864;51.970;4.614;2023-02-02T01:08:49;8.02;;;1.40;;
17494;SDS011;8864;51.970;4.614;2023-02-02T01:11:16;5.15;;;1.35;;
17494;SDS011;8864;51.970;4.614;2023-02-02T01:13:44;9.27;;;1.77;;
17494;SDS011;8864;51.970;4.614;2023-02-02T01:16:12;7.65;;;1.60;;
17494;SDS011;8864;51.970;4.614;2023-02-02T01:18:39;4.18;;;1.30;;
17494;SDS011;8864;51.970;4.614;2023-02-02T01:21:08;5.60;;;1.55;;
17494;SDS011;8864;51.970;4.614;2023-02-02T01:23:37;8.35;;;1.50;;
17494;SDS011;8864;51.970;4.614;2023-02-02T01:26:06;5.40;;;1.38;;
17494;SDS011;8864;51.970;4.614;2023-02-02T01:28:35;8.77;;;1.50;;
17494;SDS011;8864;51.970;4.614;2023-02-02T01:31:06;10.93;;;1.80;;
17494;SDS011;8864;51.970;4.614;2023-02-02T01:33:36;12.13;;;1.52;;
17494;SDS011;8864;51.970;4.614;2023-02-02T01:36:04;6.38;;;1.35;;
17494;SDS011;8864;51.970;4.614;2023-02-02T01:38:33;8.07;;;1.55;;
17494;SDS011;8864;51.970;4.614;2023-02-02T01:41:05;11.82;;;2.10;;
17494;SDS011;8864;51.970;4.614;2023-02-02T01:43:49;10.93;;;1.83;;
17494;SDS011;8864;51.970;4.614;2023-02-02T01:46:19;8.68;;;1.58;;
17494;SDS011;8864;51.970;4.614;2023-02-02T01:48:53;8.23;;;2.10;;
17494;SDS011;8864;51.970;4.614;2023-02-02T01:51:26;6.68;;;1.55;;
17494;SDS011;8864;51.970;4.614;2023-02-02T01:53:56;7.75;;;1.60;;
17494;SDS011;8864;51.970;4.614;2023-02-02T01:56:26;6.90;;;1.20;;
17494;SDS011;8864;51.970;4.614;2023-02-02T01:58:55;9.75;;;1.83;;
17494;SDS011;8864;51.970;4.614;2023-02-02T02:01:26;4.50;;;1.23;;
17494;SDS011;8864;51.970;4.614;2023-02-02T02:03:54;7.10;;;1.55;;
17494;SDS011;8864;51.970;4.614;2023-02-02T02:06:22;8.68;;;1.48;;
17494;SDS011;8864;51.970;4.614;2023-02-02T02:08:51;11.45;;;1.85;;
17494;SDS011;8864;51.970;4.614;2023-02-02T02:11:21;4.53;;;1.13;;
17494;SDS011;8864;51.970;4.614;2023-02-02T02:13:50;8.18;;;1.67;;
17494;SDS011;8864;51.970;4.614;2023-02-02T02:16:41;6.28;;;1.70;;
17494;SDS011;8864;51.970;4.614;2023-02-02T02:19:38;9.70;;;1.67;;
17494;SDS011;8864;51.970;4.614;2023-02-02T02:22:48;7.53;;;1.70;;
17494;SDS011;8864;51.970;4.614;2023-02-02T02:25:50;6.95;;;1.48;;
17494;SDS011;8864;51.970;4.614;2023-02-02T02:28:51;6.53;;;1.00;;
17494;SDS011;8864;51.970;4.614;2023-02-02T02:34:42;5.63;;;1.33;;
17494;SDS011;8864;51.970;4.614;2023-02-02T02:37:17;7.68;;;1.55;;
17494;SDS011;8864;51.970;4.614;2023-02-02T02:39:56;6.57;;;1.42;;
17494;SDS011;8864;51.970;4.614;2023-02-02T02:42:28;6.03;;;1.50;;
17494;SDS011;8864;51.970;4.614;2023-02-02T02:44:59;6.72;;;1.30;;
17494;SDS011;8864;51.970;4.614;2023-02-02T02:47:31;10.43;;;1.67;;
17494;SDS011;8864;51.970;4.614;2023-02-02T02:50:01;6.85;;;1.75;;
17494;SDS011;8864;51.970;4.614;2023-02-02T02:52:30;7.68;;;1.70;;
17494;SDS011;8864;51.970;4.614;2023-02-02T02:54:58;10.15;;;1.65;;
17494;SDS011;8864;51.970;4.614;2023-02-02T02:57:31;9.15;;;2.00;;
17494;SDS011;8864;51.970;4.614;2023-02-02T03:00:09;6.15;;;1.48;;
17494;SDS011;8864;51.970;4.614;2023-02-02T03:02:55;7.47;;;1.70;;
17494;SDS011;8864;51.970;4.614;2023-02-02T03:05:30;7.03;;;1.75;;
17494;SDS011;8864;51.970;4.614;2023-02-02T03:08:05;3.65;;;1.23;;
17494;SDS011;8864;51.970;4.614;2023-02-02T03:10:36;6.32;;;1.42;;
17494;SDS011;8864;51.970;4.614;2023-02-02T03:13:05;9.40;;;1.70;;
17494;SDS011;8864;51.970;4.614;2023-02-02T03:15:34;7.22;;;1.70;;
17494;SDS011;8864;51.970;4.614;2023-02-02T03:18:03;5.72;;;1.38;;
17494;SDS011;8864;51.970;4.614;2023-02-02T03:20:32;10.65;;;2.17;;
17494;SDS011;8864;51.970;4.614;2023-02-02T03:22:59;7.28;;;1.25;;
17494;SDS011;8864;51.970;4.614;2023-02-02T03:25:26;7.60;;;1.42;;
17494;SDS011;8864;51.970;4.614;2023-02-02T03:27:54;10.40;;;1.60;;
17494;SDS011;8864;51.970;4.614;2023-02-02T03:30:21;8.60;;;1.50;;
17494;SDS011;8864;51.970;4.614;2023-02-02T03:32:48;5.78;;;1.52;;
17494;SDS011;8864;51.970;4.614;2023-02-02T03:35:18;9.95;;;1.50;;
17494;SDS011;8864;51.970;4.614;2023-02-02T03:37:47;11.05;;;1.70;;
17494;SDS011;8864;51.970;4.614;2023-02-02T03:40:14;8.77;;;1.70;;
17494;SDS011;8864;51.970;4.614;2023-02-02T03:42:43;4.88;;;1.48;;
17494;SDS011;8864;51.970;4.614;2023-02-02T03:45:11;11.27;;;2.05;;
17494;SDS011;8864;51.970;4.614;2023-02-02T03:47:38;9.10;;;1.65;;
17494;SDS011;8864;51.970;4.614;2023-02-02T03:50:08;3.47;;;1.05;;
17494;SDS011;8864;51.970;4.614;2023-02-02T03:52:38;7.32;;;1.33;;
17494;SDS011;8864;51.970;4.614;2023-02-02T03:55:07;7.90;;;1.77;;
17494;SDS011;8864;51.970;4.614;2023-02-02T03:57:34;5.05;;;1.77;;
17494;SDS011;8864;51.970;4.614;2023-02-02T04:00:01;7.70;;;1.63;;
17494;SDS011;8864;51.970;4.614;2023-02-02T04:02:29;7.65;;;1.30;;
17494;SDS011;8864;51.970;4.614;2023-02-02T04:04:57;8.95;;;1.40;;
17494;SDS011;8864;51.970;4.614;2023-02-02T04:07:24;7.88;;;1.38;;
17494;SDS011;8864;51.970;4.614;2023-02-02T04:09:54;7.25;;;1.48;;
17494;SDS011;8864;51.970;4.614;2023-02-02T04:12:22;5.18;;;1.50;;
17494;SDS011;8864;51.970;4.614;2023-02-02T04:14:56;7.95;;;1.73;;
17494;SDS011;8864;51.970;4.614;2023-02-02T04:17:23;4.68;;;1.20;;
17494;SDS011;8864;51.970;4.614;2023-02-02T04:19:50;7.85;;;1.67;;
17494;SDS011;8864;51.970;4.614;2023-02-02T04:22:22;8.45;;;1.75;;
17494;SDS011;8864;51.970;4.614;2023-02-02T04:24:49;8.13;;;1.38;;
17494;SDS011;8864;51.970;4.614;2023-02-02T04:27:18;3.85;;;1.48;;
17494;SDS011;8864;51.970;4.614;2023-02-02T04:29:45;7.07;;;1.63;;
17494;SDS011;8864;51.970;4.614;2023-02-02T04:32:13;8.02;;;1.60;;
17494;SDS011;8864;51.970;4.614;2023-02-02T04:34:40;8.80;;;1.60;;
17494;SDS011;8864;51.970;4.614;2023-02-02T04:37:08;8.02;;;1.45;;
17494;SDS011;8864;51.970;4.614;2023-02-02T04:39:35;6.18;;;1.50;;
17494;SDS011;8864;51.970;4.614;2023-02-02T04:42:02;5.53;;;1.23;;
17494;SDS011;8864;51.970;4.614;2023-02-02T04:44:31;7.80;;;1.58;;
17494;SDS011;8864;51.970;4.614;2023-02-02T04:46:59;6.55;;;1.50;;
17494;SDS011;8864;51.970;4.614;2023-02-02T04:49:26;4.05;;;1.30;;
17494;SDS011;8864;51.970;4.614;2023-02-02T04:51:54;4.68;;;1.45;;
17494;SDS011;8864;51.970;4.614;2023-02-02T04:54:24;5.28;;;1.50;;
17494;SDS011;8864;51.970;4.614;2023-02-02T04:56:54;6.00;;;1.52;;
17494;SDS011;8864;51.970;4.614;2023-02-02T04:59:26;6.72;;;1.50;;
17494;SDS011;8864;51.970;4.614;2023-02-02T05:01:55;3.72;;;1.25;;
17494;SDS011;8864;51.970;4.614;2023-02-02T05:04:33;4.03;;;1.20;;
17494;SDS011;8864;51.970;4.614;2023-02-02T05:07:06;5.15;;;1.55;;
17494;SDS011;8864;51.970;4.614;2023-02-02T05:09:33;5.78;;;1.35;;
17494;SDS011;8864;51.970;4.614;2023-02-02T05:12:02;5.65;;;1.42;;
17494;SDS011;8864;51.970;4.614;2023-02-02T05:14:33;6.53;;;1.90;;
17494;SDS011;8864;51.970;4.614;2023-02-02T05:17:04;4.80;;;1.50;;
17494;SDS011;8864;51.970;4.614;2023-02-02T05:19:31;6.10;;;1.35;;
17494;SDS011;8864;51.970;4.614;2023-02-02T05:21:58;8.20;;;1.60;;
17494;SDS011;8864;51.970;4.614;2023-02-02T05:24:30;4.50;;;1.52;;
17494;SDS011;8864;51.970;4.614;2023-02-02T05:27:09;6.28;;;1.70;;
17494;SDS011;8864;51.970;4.614;2023-02-02T05:29:45;9.52;;;1.70;;
17494;SDS011;8864;51.970;4.614;2023-02-02T05:32:18;10.43;;;1.70;;
17494;SDS011;8864;51.970;4.614;2023-02-02T05:34:48;5.85;;;1.77;;
17494;SDS011;8864;51.970;4.614;2023-02-02T05:37:15;7.30;;;1.58;;
17494;SDS011;8864;51.970;4.614;2023-02-02T05:39:46;10.02;;;1.90;;
17494;SDS011;8864;51.970;4.614;2023-02-02T05:42:13;6.40;;;1.50;;
17494;SDS011;8864;51.970;4.614;2023-02-02T05:44:41;5.13;;;1.55;;
17494;SDS011;8864;51.970;4.614;2023-02-02T05:47:11;8.80;;;1.83;;
17494;SDS011;8864;51.970;4.614;2023-02-02T05:49:44;7.68;;;1.45;;
17494;SDS011;8864;51.970;4.614;2023-02-02T05:52:15;8.80;;;1.40;;
17494;SDS011;8864;51.970;4.614;2023-02-02T05:54:47;8.93;;;1.75;;
17494;SDS011;8864;51.970;4.614;2023-02-02T05:57:20;4.78;;;1.20;;
17494;SDS011;8864;51.970;4.614;2023-02-02T05:59:51;6.85;;;1.55;;
17494;SDS011;8864;51.970;4.614;2023-02-02T06:02:22;5.95;;;1.63;;
17494;SDS011;8864;51.970;4.614;2023-02-02T06:04:52;4.80;;;1.23;;
17494;SDS011;8864;51.970;4.614;2023-02-02T06:07:19;3.95;;;1.40;;
17494;SDS011;8864;51.970;4.614;2023-02-02T06:09:46;6.57;;;1.20;;
17494;SDS011;8864;51.970;4.614;2023-02-02T06:12:13;7.38;;;1.35;;
17494;SDS011;8864;51.970;4.614;2023-02-02T06:14:42;8.07;;;1.92;;
17494;SDS011;8864;51.970;4.614;2023-02-02T06:17:10;5.63;;;1.40;;
17494;SDS011;8864;51.970;4.614;2023-02-02T06:19:37;5.35;;;1.60;;
17494;SDS011;8864;51.970;4.614;2023-02-02T06:22:06;6.10;;;1.33;;
17494;SDS011;8864;51.970;4.614;2023-02-02T06:24:33;6.93;;;1.42;;
17494;SDS011;8864;51.970;4.614;2023-02-02T06:27:00;7.75;;;1.52;;
17494;SDS011;8864;51.970;4.614;2023-02-02T06:29:28;4.63;;;1.20;;
17494;SDS011;8864;51.970;4.614;2023-02-02T06:31:56;7.25;;;1.65;;
17494;SDS011;8864;51.970;4.614;2023-02-02T06:34:23;4.13;;;1.30;;
17494;SDS011;8864;51.970;4.614;2023-02-02T06:36:50;9.48;;;1.48;;
17494;SDS011;8864;51.970;4.614;2023-02-02T06:39:19;6.75;;;1.40;;
17494;SDS011;8864;51.970;4.614;2023-02-02T06:41:46;7.13;;;1.48;;
17494;SDS011;8864;51.970;4.614;2023-02-02T06:44:13;8.55;;;1.40;;
17494;SDS011;8864;51.970;4.614;2023-02-02T06:46:41;7.75;;;1.77;;
17494;SDS011;8864;51.970;4.614;2023-02-02T06:49:08;8.27;;;1.73;;
17494;SDS011;8864;51.970;4.614;2023-02-02T06:51:35;5.10;;;1.33;;
17494;SDS011;8864;51.970;4.614;2023-02-02T06:54:04;4.28;;;1.45;;
17494;SDS011;8864;51.970;4.614;2023-02-02T06:56:32;4.90;;;1.50;;
17494;SDS011;8864;51.970;4.614;2023-02-02T06:59:00;7.00;;;1.75;;
17494;SDS011;8864;51.970;4.614;2023-02-02T07:01:28;6.45;;;1.50;;
17494;SDS011;8864;51.970;4.614;2023-02-02T07:03:55;9.13;;;1.60;;
17494;SDS011;8864;51.970;4.614;2023-02-02T07:06:24;6.57;;;1.45;;
17494;SDS011;8864;51.970;4.614;2023-02-02T07:08:53;4.30;;;1.20;;
17494;SDS011;8864;51.970;4.614;2023-02-02T07:11:21;8.43;;;1.85;;
17494;SDS011;8864;51.970;4.614;2023-02-02T07:13:50;3.85;;;1.10;;
17494;SDS011;8864;51.970;4.614;2023-02-02T07:16:19;5.60;;;1.38;;
17494;SDS011;8864;51.970;4.614;2023-02-02T07:18:46;4.65;;;1.52;;
17494;SDS011;8864;51.970;4.614;2023-02-02T07:21:17;8.98;;;1.52;;
17494;SDS011;8864;51.970;4.614;2023-02-02T07:23:46;9.00;;;1.60;;
17494;SDS011;8864;51.970;4.614;2023-02-02T07:26:13;5.50;;;1.80;;
17494;SDS011;8864;51.970;4.614;2023-02-02T07:28:41;5.53;;;1.30;;
17494;SDS011;8864;51.970;4.614;2023-02-02T07:31:13;8.65;;;2.00;;
17494;SDS011;8864;51.970;4.614;2023-02-02T07:33:42;4.85;;;1.40;;
17494;SDS011;8864;51.970;4.614;2023-02-02T07:36:10;4.50;;;1.30;;
17494;SDS011;8864;51.970;4.614;2023-02-02T07:38:40;7.22;;;1.42;;
17494;SDS011;8864;51.970;4.614;2023-02-02T07:41:07;4.40;;;1.15;;
17494;SDS011;8864;51.970;4.614;2023-02-02T07:43:35;4.18;;;1.20;;
17494;SDS011;8864;51.970;4.614;2023-02-02T07:46:03;5.18;;;1.13;;
17494;SDS011;8864;51.970;4.614;2023-02-02T07:48:33;7.35;;;1.33;;
17494;SDS011;8864;51.970;4.614;2023-02-02T07:51:06;6.22;;;1.25;;
17494;SDS011;8864;51.970;4.614;2023-02-02T07:53:35;5.20;;;1.15;;
17494;SDS011;8864;51.970;4.614;2023-02-02T07:56:08;3.05;;;0.88;;
17494;SDS011;8864;51.970;4.614;2023-02-02T07:58:37;5.68;;;1.27;;
17494;SDS011;8864;51.970;4.614;2023-02-02T08:01:05;3.38;;;1.00;;
17494;SDS011;8864;51.970;4.614;2023-02-02T08:03:35;4.28;;;1.50;;
17494;SDS011;8864;51.970;4.614;2023-02-02T08:06:08;10.10;;;1.40;;
17494;SDS011;8864;51.970;4.614;2023-02-02T08:08:40;6.28;;;1.25;;
17494;SDS011;8864;51.970;4.614;2023-02-02T08:11:08;4.63;;;1.25;;
17494;SDS011;8864;51.970;4.614;2023-02-02T08:13:40;8.95;;;1.67;;
17494;SDS011;8864;51.970;4.614;2023-02-02T08:16:08;15.85;;;1.85;;
17494;SDS011;8864;51.970;4.614;2023-02-02T08:18:37;3.97;;;1.00;;
17494;SDS011;8864;51.970;4.614;2023-02-02T08:21:05;197.70;;;27.85;;
17494;SDS011;8864;51.970;4.614;2023-02-02T08:23:34;55.45;;;10.23;;
17494;SDS011;8864;51.970;4.614;2023-02-02T08:26:07;61.35;;;8.23;;
17494;SDS011;8864;51.970;4.614;2023-02-02T08:28:35;52.08;;;8.43;;
17494;SDS011;8864;51.970;4.614;2023-02-02T08:31:03;64.95;;;11.18;;
17494;SDS011;8864;51.970;4.614;2023-02-02T08:33:37;112.88;;;16.60;;
17494;SDS011;8864;51.970;4.614;2023-02-02T08:36:08;86.25;;;12.48;;
17494;SDS011;8864;51.970;4.614;2023-02-02T08:38:37;73.93;;;10.75;;
17494;SDS011;8864;51.970;4.614;2023-02-02T08:41:05;71.68;;;9.90;;
17494;SDS011;8864;51.970;4.614;2023-02-02T08:43:33;60.38;;;10.18;;
17494;SDS011;8864;51.970;4.614;2023-02-02T08:46:04;54.95;;;10.20;;
17494;SDS011;8864;51.970;4.614;2023-02-02T08:48:33;55.70;;;10.02;;
17494;SDS011;8864;51.970;4.614;2023-02-02T08:51:03;48.78;;;8.65;;
17494;SDS011;8864;51.970;4.614;2023-02-02T08:53:33;45.55;;;8.77;;
17494;SDS011;8864;51.970;4.614;2023-02-02T08:56:01;34.00;;;8.52;;
17494;SDS011;8864;51.970;4.614;2023-02-02T08:58:29;55.80;;;8.15;;
17494;SDS011;8864;51.970;4.614;2023-02-02T09:01:05;41.00;;;7.22;;
17494;SDS011;8864;51.970;4.614;2023-02-02T09:03:37;46.03;;;7.60;;
17494;SDS011;8864;51.970;4.614;2023-02-02T09:06:09;33.40;;;6.53;;
17494;SDS011;8864;51.970;4.614;2023-02-02T09:08:38;30.88;;;6.32;;
17494;SDS011;8864;51.970;4.614;2023-02-02T09:11:07;30.88;;;6.25;;
17494;SDS011;8864;51.970;4.614;2023-02-02T09:13:37;37.28;;;6.57;;
17494;SDS011;8864;51.970;4.614;2023-02-02T09:16:06;25.67;;;5.97;;
17494;SDS011;8864;51.970;4.614;2023-02-02T09:18:36;26.63;;;5.32;;
17494;SDS011;8864;51.970;4.614;2023-02-02T09:21:05;30.02;;;5.90;;
17494;SDS011;8864;51.970;4.614;2023-02-02T09:23:36;21.38;;;5.13;;
17494;SDS011;8864;51.970;4.614;2023-02-02T09:26:08;21.58;;;4.75;;
17494;SDS011;8864;51.970;4.614;2023-02-02T09:28:37;25.70;;;5.00;;
17494;SDS011;8864;51.970;4.614;2023-02-02T09:31:05;17.90;;;4.43;;
17494;SDS011;8864;51.970;4.614;2023-02-02T09:33:35;14.73;;;4.35;;
17494;SDS011;8864;51.970;4.614;2023-02-02T09:36:05;20.23;;;4.32;;
17494;SDS011;8864;51.970;4.614;2023-02-02T09:38:33;17.00;;;4.43;;
17494;SDS011;8864;51.970;4.614;2023-02-02T09:41:01;16.73;;;4.35;;
17494;SDS011;8864;51.970;4.614;2023-02-02T09:43:56;20.30;;;4.25;;
17494;SDS011;8864;51.970;4.614;2023-02-02T09:46:36;16.30;;;4.32;;
17494;SDS011;8864;51.970;4.614;2023-02-02T09:49:13;19.45;;;3.85;;
17494;SDS011;8864;51.970;4.614;2023-02-02T09:51:46;13.05;;;3.22;;
17494;SDS011;8864;51.970;4.614;2023-02-02T09:54:21;17.48;;;3.08;;
17494;SDS011;8864;51.970;4.614;2023-02-02T09:56:55;12.60;;;2.80;;
17494;SDS011;8864;51.970;4.614;2023-02-02T09:59:26;13.68;;;2.95;;
17494;SDS011;8864;51.970;4.614;2023-02-02T10:02:02;18.73;;;3.33;;
17494;SDS011;8864;51.970;4.614;2023-02-02T10:04:33;14.50;;;3.22;;
17494;SDS011;8864;51.970;4.614;2023-02-02T10:07:10;10.38;;;2.85;;
17494;SDS011;8864;51.970;4.614;2023-02-02T10:09:42;11.25;;;2.55;;
17494;SDS011;8864;51.970;4.614;2023-02-02T10:12:17;13.63;;;2.75;;
17494;SDS011;8864;51.970;4.614;2023-02-02T10:14:56;16.67;;;2.90;;
17494;SDS011;8864;51.970;4.614;2023-02-02T10:17:38;9.98;;;2.42;;
17494;SDS011;8864;51.970;4.614;2023-02-02T10:20:24;10.95;;;2.38;;
17494;SDS011;8864;51.970;4.614;2023-02-02T10:23:05;33.13;;;3.75;;
17494;SDS011;8864;51.970;4.614;2023-02-02T10:25:40;14.82;;;2.65;;
17494;SDS011;8864;51.970;4.614;2023-02-02T10:28:16;17.65;;;2.80;;
17494;SDS011;8864;51.970;4.614;2023-02-02T10:30:45;10.93;;;2.20;;
17494;SDS011;8864;51.970;4.614;2023-02-02T10:33:20;15.18;;;2.88;;
17494;SDS011;8864;51.970;4.614;2023-02-02T10:35:56;14.23;;;2.65;;
17494;SDS011;8864;51.970;4.614;2023-02-02T10:38:32;9.10;;;2.00;;
17494;SDS011;8864;51.970;4.614;2023-02-02T10:41:10;15.00;;;2.88;;
17494;SDS011;8864;51.970;4.614;2023-02-02T10:43:50;9.52;;;2.22;;
17494;SDS011;8864;51.970;4.614;2023-02-02T10:46:29;10.57;;;2.03;;
17494;SDS011;8864;51.970;4.614;2023-02-02T10:49:04;11.88;;;1.95;;
17494;SDS011;8864;51.970;4.614;2023-02-02T10:51:40;15.10;;;2.20;;
17494;SDS011;8864;51.970;4.614;2023-02-02T10:54:19;9.13;;;2.40;;
17494;SDS011;8864;51.970;4.614;2023-02-02T10:57:03;11.18;;;2.03;;
17494;SDS011;8864;51.970;4.614;2023-02-02T10:59:37;15.23;;;2.38;;
17494;SDS011;8864;51.970;4.614;2023-02-02T11:02:11;9.68;;;1.95;;
17494;SDS011;8864;51.970;4.614;2023-02-02T11:04:39;11.48;;;2.47;;
17494;SDS011;8864;51.970;4.614;2023-02-02T11:07:23;5.97;;;1.50;;
17494;SDS011;8864;51.970;4.614;2023-02-02T11:09:51;9.50;;;1.95;;
17494;SDS011;8864;51.970;4.614;2023-02-02T11:12:21;11.07;;;1.90;;
17494;SDS011;8864;51.970;4.614;2023-02-02T11:14:58;8.25;;;2.30;;
17494;SDS011;8864;51.970;4.614;2023-02-02T11:17:30;9.10;;;2.15;;
17494;SDS011;8864;51.970;4.614;2023-02-02T11:19:58;4.10;;;1.30;;
17494;SDS011;8864;51.970;4.614;2023-02-02T11:22:27;12.32;;;1.85;;
17494;SDS011;8864;51.970;4.614;2023-02-02T11:24:59;6.18;;;1.42;;
17494;SDS011;8864;51.970;4.614;2023-02-02T11:27:30;12.20;;;1.75;;
17494;SDS011;8864;51.970;4.614;2023-02-02T11:30:21;7.05;;;1.80;;
17494;SDS011;8864;51.970;4.614;2023-02-02T11:32:58;10.32;;;1.63;;
17494;SDS011;8864;51.970;4.614;2023-02-02T11:35:26;9.77;;;1.67;;
17494;SDS011;8864;51.970;4.614;2023-02-02T11:37:56;5.55;;;1.20;;
17494;SDS011;8864;51.970;4.614;2023-02-02T11:40:28;14.43;;;1.75;;
17494;SDS011;8864;51.970;4.614;2023-02-02T11:43:00;8.75;;;1.50;;
17494;SDS011;8864;51.970;4.614;2023-02-02T11:45:33;8.32;;;1.70;;
17494;SDS011;8864;51.970;4.614;2023-02-02T11:48:03;11.40;;;1.90;;
17494;SDS011;8864;51.970;4.614;2023-02-02T11:50:35;7.60;;;1.50;;
17494;SDS011;8864;51.970;4.614;2023-02-02T11:53:05;9.40;;;1.58;;
17494;SDS011;8864;51.970;4.614;2023-02-02T11:55:34;8.60;;;1.75;;
17494;SDS011;8864;51.970;4.614;2023-02-02T11:58:17;7.60;;;1.50;;
17494;SDS011;8864;51.970;4.614;2023-02-02T12:00:51;10.43;;;1.67;;
17494;SDS011;8864;51.970;4.614;2023-02-02T12:03:21;10.57;;;1.67;;
17494;SDS011;8864;51.970;4.614;2023-02-02T12:05:50;10.68;;;1.80;;
17494;SDS011;8864;51.970;4.614;2023-02-02T12:08:17;9.05;;;1.70;;
17494;SDS011;8864;51.970;4.614;2023-02-02T12:10:58;8.90;;;1.60;;
17494;SDS011;8864;51.970;4.614;2023-02-02T12:13:41;8.35;;;1.98;;
17494;SDS011;8864;51.970;4.614;2023-02-02T12:16:30;6.43;;;1.48;;
17494;SDS011;8864;51.970;4.614;2023-02-02T12:19:14;3.85;;;1.10;;
17494;SDS011;8864;51.970;4.614;2023-02-02T12:21:57;7.97;;;1.50;;
17494;SDS011;8864;51.970;4.614;2023-02-02T12:24:33;8.52;;;1.77;;
17494;SDS011;8864;51.970;4.614;2023-02-02T12:27:10;9.07;;;1.70;;
17494;SDS011;8864;51.970;4.614;2023-02-02T12:29:50;5.47;;;1.42;;
17494;SDS011;8864;51.970;4.614;2023-02-02T12:32:42;4.13;;;1.13;;
17494;SDS011;8864;51.970;4.614;2023-02-02T12:35:22;6.97;;;1.58;;
17494;SDS011;8864;51.970;4.614;2023-02-02T12:38:09;7.13;;;1.35;;
17494;SDS011;8864;51.970;4.614;2023-02-02T12:43:38;5.80;;;1.45;;
17494;SDS011;8864;51.970;4.614;2023-02-02T12:46:10;7.45;;;1.15;;
17494;SDS011;8864;51.970;4.614;2023-02-02T12:48:54;9.50;;;1.83;;
17494;SDS011;8864;51.970;4.614;2023-02-02T12:51:47;4.97;;;1.30;;
17494;SDS011;8864;51.970;4.614;2023-02-02T12:54:27;5.18;;;1.25;;
17494;SDS011;8864;51.970;4.614;2023-02-02T12:57:18;6.60;;;1.35;;
17494;SDS011;8864;51.970;4.614;2023-02-02T13:03:15;8.05;;;1.10;;
17494;SDS011;8864;51.970;4.614;2023-02-02T13:06:08;7.05;;;1.05;;
17494;SDS011;8864;51.970;4.614;2023-02-02T13:08:56;7.80;;;1.42;;
17494;SDS011;8864;51.970;4.614;2023-02-02T13:11:31;4.15;;;1.20;;
17494;SDS011;8864;51.970;4.614;2023-02-02T13:14:08;9.10;;;1.20;;
17494;SDS011;8864;51.970;4.614;2023-02-02T13:16:42;2.83;;;1.05;;
17494;SDS011;8864;51.970;4.614;2023-02-02T13:19:14;3.97;;;1.00;;
17494;SDS011;8864;51.970;4.614;2023-02-02T13:21:50;2.55;;;0.90;;
17494;SDS011;8864;51.970;4.614;2023-02-02T13:24:25;5.10;;;1.25;;
17494;SDS011;8864;51.970;4.614;2023-02-02T13:26:57;3.30;;;1.00;;
17494;SDS011;8864;51.970;4.614;2023-02-02T13:29:31;5.78;;;1.10;;
17494;SDS011;8864;51.970;4.614;2023-02-02T13:32:05;7.28;;;1.20;;
17494;SDS011;8864;51.970;4.614;2023-02-02T13:34:41;1.95;;;0.82;;
17494;SDS011;8864;51.970;4.614;2023-02-02T13:37:24;2.60;;;1.00;;
17494;SDS011;8864;51.970;4.614;2023-02-02T13:40:02;4.55;;;1.08;;
17494;SDS011;8864;51.970;4.614;2023-02-02T13:42:33;3.90;;;0.90;;
17494;SDS011;8864;51.970;4.614;2023-02-02T13:45:14;6.47;;;1.38;;
17494;SDS011;8864;51.970;4.614;2023-02-02T13:47:56;4.13;;;1.20;;
17494;SDS011;8864;51.970;4.614;2023-02-02T13:50:44;4.70;;;0.98;;
17494;SDS011;8864;51.970;4.614;2023-02-02T13:56:25;3.95;;;0.90;;
17494;SDS011;8864;51.970;4.614;2023-02-02T13:59:02;6.43;;;1.10;;
17494;SDS011;8864;51.970;4.614;2023-02-02T14:01:54;6.53;;;1.08;;
17494;SDS011;8864;51.970;4.614;2023-02-02T14:04:24;4.18;;;1.08;;
17494;SDS011;8864;51.970;4.614;2023-02-02T14:06:54;4.65;;;0.88;;
17494;SDS011;8864;51.970;4.614;2023-02-02T14:09:27;2.25;;;0.90;;
17494;SDS011;8864;51.970;4.614;2023-02-02T14:11:59;3.55;;;1.10;;
17494;SDS011;8864;51.970;4.614;2023-02-02T14:14:28;2.60;;;0.68;;
17494;SDS011;8864;51.970;4.614;2023-02-02T14:17:00;2.13;;;0.75;;
17494;SDS011;8864;51.970;4.614;2023-02-02T14:28:39;5.95;;;1.08;;
17494;SDS011;8864;51.970;4.614;2023-02-02T14:31:27;1.85;;;0.80;;
17494;SDS011;8864;51.970;4.614;2023-02-02T14:34:26;3.08;;;0.70;;
17494;SDS011;8864;51.970;4.614;2023-02-02T14:40:15;2.50;;;0.70;;
17494;SDS011;8864;51.970;4.614;2023-02-02T14:42:58;1.77;;;0.73;;
17494;SDS011;8864;51.970;4.614;2023-02-02T14:51:49;4.13;;;0.77;;
17494;SDS011;8864;51.970;4.614;2023-02-02T14:54:23;4.13;;;0.70;;
17494;SDS011;8864;51.970;4.614;2023-02-02T14:56:54;2.47;;;0.80;;
17494;SDS011;8864;51.970;4.614;2023-02-02T14:59:33;2.38;;;0.80;;
17494;SDS011;8864;51.970;4.614;2023-02-02T15:02:08;2.13;;;0.82;;
17494;SDS011;8864;51.970;4.614;2023-02-02T15:04:42;3.60;;;0.80;;
17494;SDS011;8864;51.970;4.614;2023-02-02T15:14:04;3.28;;;0.82;;
17494;SDS011;8864;51.970;4.614;2023-02-02T15:16:40;3.38;;;0.85;;
17494;SDS011;8864;51.970;4.614;2023-02-02T15:19:12;2.53;;;0.70;;
17494;SDS011;8864;51.970;4.614;2023-02-02T15:21:47;2.42;;;0.88;;
17494;SDS011;8864;51.970;4.614;2023-02-02T15:24:21;1.90;;;0.65;;
17494;SDS011;8864;51.970;4.614;2023-02-02T15:26:52;1.25;;;0.70;;
17494;SDS011;8864;51.970;4.614;2023-02-02T15:29:25;2.40;;;0.80;;
17494;SDS011;8864;51.970;4.614;2023-02-02T15:32:00;1.85;;;0.70;;
17494;SDS011;8864;51.970;4.614;2023-02-02T15:34:34;3.58;;;0.70;;
17494;SDS011;8864;51.970;4.614;2023-02-02T15:37:06;4.53;;;1.00;;
17494;SDS011;8864;51.970;4.614;2023-02-02T15:39:39;1.80;;;0.60;;
17494;SDS011;8864;51.970;4.614;2023-02-02T15:42:12;1.52;;;0.80;;
17494;SDS011;8864;51.970;4.614;2023-02-02T15:44:59;2.25;;;0.80;;
17494;SDS011;8864;51.970;4.614;2023-02-02T15:47:29;6.75;;;0.80;;
17494;SDS011;8864;51.970;4.614;2023-02-02T15:49:58;1.67;;;0.57;;
17494;SDS011;8864;51.970;4.614;2023-02-02T15:52:27;2.08;;;0.90;;
17494;SDS011;8864;51.970;4.614;2023-02-02T15:54:59;2.38;;;0.68;;
17494;SDS011;8864;51.970;4.614;2023-02-02T15:57:30;1.92;;;0.63;;
17494;SDS011;8864;51.970;4.614;2023-02-02T15:59:59;2.65;;;0.85;;
17494;SDS011;8864;51.970;4.614;2023-02-02T16:02:51;1.58;;;0.60;;
17494;SDS011;8864;51.970;4.614;2023-02-02T16:05:25;3.47;;;0.70;;
17494;SDS011;8864;51.970;4.614;2023-02-02T16:08:11;1.70;;;0.65;;
17494;SDS011;8864;51.970;4.614;2023-02-02T16:10:42;1.77;;;0.60;;